Zanesville, OH

11:06 AM EST on March 06, 2015 (GMT -0500)
APRSWXNET Zanesville OH US | Change Station
CLOSE
Current Station
Personal Weather Station
Location: Zanesville, OH
Elevation: 839 ft
Nearby Weather Stations

Elev 839 ft 39.95 °N, 82.00 °W | Updated 32 minutes ago

Clear
Clear
17 °F
Feels Like 17 °F
N
1
Wind Variable Wind from SW
Gusts 0.0 mph

Today
High -- | Low -- °F
--% Chance of Precip.
Yesterday
High -- | Low -- °F
Precip. -- in
6:54 AM 6:25 PM
Full, 99% visible
Pressure 30.60 in
Visibility 10.0 miles
Clouds Clear
Windchill 17 °F
Dew Point 7 °F
Humidity 65%
Rainfall in
Snow Depth Not available.
UV 5 out of 12
Pollen 1.00 out of 12
Air Quality Not available.
Flu Activity Not available.
METAR KZZV 061553Z AUTO 22005KT 10SM CLR M09/M17 A3055 RMK AO2 SLP362 T10941167 TSNO

More Conditions Fewer Conditions

Pressure 30.60 in
Visibility 10.0 miles
Clouds Clear
Windchill 17 °F
Dew Point 7 °F
Humidity 65%
Rainfall in
Snow Depth Not available.
UV 5 out of 12
Pollen 1.00 out of 12
Air Quality Not available.
Flu Activity Not available.
METAR KZZV 061553Z AUTO 22005KT 10SM CLR M09/M17 A3055 RMK AO2 SLP362 T10941167 TSNO

More Conditions Fewer Conditions

10-Day Weather Forecast

Almanac

Astronomy

Mar. 06, 2015 Rise Set
Actual Time
Civil Twilight
Nautical Twilight
Astronomical Twilight
Moon
Length of Visible Light
Length of Day
Tomorrow will be .
, % of the Moon is Illuminated

Today's Extremes

State Highs State Lows

Community

WunderPhotos

Upload Photos

1,803,327 photos uploaded!

WunderBlogs® & News

Nearby

Air Quality

  Air Quality AQ Index Pollutant
Not available.

Snow Depth

Station Depth Elevation

Earthquake Activity

City Distance Mag. Time & Date
Minimum magnitude displayed is 2.5.

Coastal Water Temperatures

Place Temperature

Nearby Weather Stations